sensor_id;sensor_type;location;lat;lon;timestamp;P1;durP1;ratioP1;P2;durP2;ratioP2
64643;SDS011;51056;50.330;7.914;2023-08-17T00:01:26;10.98;;;1.60;;
64643;SDS011;51056;50.330;7.914;2023-08-17T00:04:30;9.50;;;1.52;;
64643;SDS011;51056;50.330;7.914;2023-08-17T00:07:33;10.40;;;1.60;;
64643;SDS011;51056;50.330;7.914;2023-08-17T00:10:36;7.07;;;1.67;;
64643;SDS011;51056;50.330;7.914;2023-08-17T00:13:41;9.70;;;1.75;;
64643;SDS011;51056;50.330;7.914;2023-08-17T00:16:45;4.68;;;1.83;;
64643;SDS011;51056;50.330;7.914;2023-08-17T00:19:48;9.85;;;1.95;;
64643;SDS011;51056;50.330;7.914;2023-08-17T00:22:52;11.90;;;2.22;;
64643;SDS011;51056;50.330;7.914;2023-08-17T00:25:55;6.93;;;2.38;;
64643;SDS011;51056;50.330;7.914;2023-08-17T00:28:59;7.07;;;2.72;;
64643;SDS011;51056;50.330;7.914;2023-08-17T00:32:02;4.75;;;2.30;;
64643;SDS011;51056;50.330;7.914;2023-08-17T00:35:06;7.35;;;2.17;;
64643;SDS011;51056;50.330;7.914;2023-08-17T00:38:10;7.60;;;2.15;;
64643;SDS011;51056;50.330;7.914;2023-08-17T00:41:13;4.18;;;1.90;;
64643;SDS011;51056;50.330;7.914;2023-08-17T00:44:16;5.63;;;2.20;;
64643;SDS011;51056;50.330;7.914;2023-08-17T00:47:19;8.57;;;1.58;;
64643;SDS011;51056;50.330;7.914;2023-08-17T00:50:23;8.00;;;3.42;;
64643;SDS011;51056;50.330;7.914;2023-08-17T00:53:28;7.93;;;2.17;;
64643;SDS011;51056;50.330;7.914;2023-08-17T00:56:35;8.18;;;1.63;;
64643;SDS011;51056;50.330;7.914;2023-08-17T00:59:38;6.93;;;2.20;;
64643;SDS011;51056;50.330;7.914;2023-08-17T01:02:42;5.90;;;1.80;;
64643;SDS011;51056;50.330;7.914;2023-08-17T01:05:46;6.63;;;1.95;;
64643;SDS011;51056;50.330;7.914;2023-08-17T01:08:49;10.25;;;2.00;;
64643;SDS011;51056;50.330;7.914;2023-08-17T01:11:53;6.45;;;1.60;;
64643;SDS011;51056;50.330;7.914;2023-08-17T01:15:33;8.40;;;1.67;;
64643;SDS011;51056;50.330;7.914;2023-08-17T01:18:40;7.28;;;2.53;;
64643;SDS011;51056;50.330;7.914;2023-08-17T01:21:44;8.70;;;2.13;;
64643;SDS011;51056;50.330;7.914;2023-08-17T01:24:56;8.40;;;2.33;;
64643;SDS011;51056;50.330;7.914;2023-08-17T01:28:02;8.75;;;2.03;;
64643;SDS011;51056;50.330;7.914;2023-08-17T01:31:11;4.80;;;2.03;;
64643;SDS011;51056;50.330;7.914;2023-08-17T01:34:25;6.40;;;1.98;;
64643;SDS011;51056;50.330;7.914;2023-08-17T01:37:34;4.63;;;1.75;;
64643;SDS011;51056;50.330;7.914;2023-08-17T01:40:41;3.78;;;2.05;;
64643;SDS011;51056;50.330;7.914;2023-08-17T01:43:49;8.38;;;2.63;;
64643;SDS011;51056;50.330;7.914;2023-08-17T01:46:53;6.38;;;2.20;;
64643;SDS011;51056;50.330;7.914;2023-08-17T01:49:59;7.13;;;3.28;;
64643;SDS011;51056;50.330;7.914;2023-08-17T01:53:02;8.45;;;2.13;;
64643;SDS011;51056;50.330;7.914;2023-08-17T01:56:06;5.28;;;1.88;;
64643;SDS011;51056;50.330;7.914;2023-08-17T01:59:09;4.97;;;2.45;;
64643;SDS011;51056;50.330;7.914;2023-08-17T02:02:12;8.02;;;2.53;;
64643;SDS011;51056;50.330;7.914;2023-08-17T02:05:17;6.88;;;2.15;;
64643;SDS011;51056;50.330;7.914;2023-08-17T02:08:22;8.00;;;2.00;;
64643;SDS011;51056;50.330;7.914;2023-08-17T02:11:25;8.75;;;2.65;;
64643;SDS011;51056;50.330;7.914;2023-08-17T02:14:31;5.50;;;1.70;;
64643;SDS011;51056;50.330;7.914;2023-08-17T02:17:34;6.28;;;2.00;;
64643;SDS011;51056;50.330;7.914;2023-08-17T02:20:37;5.95;;;2.55;;
64643;SDS011;51056;50.330;7.914;2023-08-17T02:23:41;5.97;;;2.50;;
64643;SDS011;51056;50.330;7.914;2023-08-17T02:26:44;8.75;;;2.60;;
64643;SDS011;51056;50.330;7.914;2023-08-17T02:29:47;7.60;;;2.40;;
64643;SDS011;51056;50.330;7.914;2023-08-17T02:32:50;7.28;;;2.83;;
64643;SDS011;51056;50.330;7.914;2023-08-17T02:35:54;9.85;;;2.70;;
64643;SDS011;51056;50.330;7.914;2023-08-17T02:38:57;8.55;;;2.47;;
64643;SDS011;51056;50.330;7.914;2023-08-17T02:42:00;8.10;;;2.33;;
64643;SDS011;51056;50.330;7.914;2023-08-17T02:45:04;11.35;;;2.60;;
64643;SDS011;51056;50.330;7.914;2023-08-17T02:48:07;11.77;;;2.72;;
64643;SDS011;51056;50.330;7.914;2023-08-17T02:51:10;6.38;;;2.53;;
64643;SDS011;51056;50.330;7.914;2023-08-17T02:54:15;9.57;;;2.30;;
64643;SDS011;51056;50.330;7.914;2023-08-17T02:57:18;7.25;;;2.63;;
64643;SDS011;51056;50.330;7.914;2023-08-17T03:00:25;7.30;;;2.55;;
64643;SDS011;51056;50.330;7.914;2023-08-17T03:03:29;4.28;;;2.40;;
64643;SDS011;51056;50.330;7.914;2023-08-17T03:06:32;7.75;;;2.40;;
64643;SDS011;51056;50.330;7.914;2023-08-17T03:09:35;10.73;;;3.17;;
64643;SDS011;51056;50.330;7.914;2023-08-17T03:12:38;13.38;;;3.72;;
64643;SDS011;51056;50.330;7.914;2023-08-17T03:15:43;5.55;;;2.75;;
64643;SDS011;51056;50.330;7.914;2023-08-17T03:18:46;4.63;;;2.03;;
64643;SDS011;51056;50.330;7.914;2023-08-17T03:21:51;7.28;;;2.42;;
64643;SDS011;51056;50.330;7.914;2023-08-17T03:24:55;6.95;;;2.40;;
64643;SDS011;51056;50.330;7.914;2023-08-17T03:28:00;6.22;;;2.60;;
64643;SDS011;51056;50.330;7.914;2023-08-17T03:31:03;13.65;;;2.17;;
64643;SDS011;51056;50.330;7.914;2023-08-17T03:34:06;6.40;;;2.58;;
64643;SDS011;51056;50.330;7.914;2023-08-17T03:37:09;8.80;;;2.53;;
64643;SDS011;51056;50.330;7.914;2023-08-17T03:40:13;8.68;;;3.20;;
64643;SDS011;51056;50.330;7.914;2023-08-17T03:43:19;12.93;;;3.00;;
64643;SDS011;51056;50.330;7.914;2023-08-17T03:46:25;6.68;;;2.50;;
64643;SDS011;51056;50.330;7.914;2023-08-17T03:49:29;13.70;;;2.95;;
64643;SDS011;51056;50.330;7.914;2023-08-17T03:52:33;6.68;;;3.03;;
64643;SDS011;51056;50.330;7.914;2023-08-17T03:55:37;9.90;;;2.70;;
64643;SDS011;51056;50.330;7.914;2023-08-17T03:58:40;9.20;;;2.92;;
64643;SDS011;51056;50.330;7.914;2023-08-17T04:01:46;9.43;;;3.10;;
64643;SDS011;51056;50.330;7.914;2023-08-17T04:04:51;9.05;;;3.10;;
64643;SDS011;51056;50.330;7.914;2023-08-17T04:07:54;11.80;;;3.30;;
64643;SDS011;51056;50.330;7.914;2023-08-17T04:10:59;8.45;;;3.15;;
64643;SDS011;51056;50.330;7.914;2023-08-17T04:14:04;7.20;;;2.40;;
64643;SDS011;51056;50.330;7.914;2023-08-17T04:17:07;12.60;;;3.47;;
64643;SDS011;51056;50.330;7.914;2023-08-17T04:20:10;8.98;;;3.10;;
64643;SDS011;51056;50.330;7.914;2023-08-17T04:23:13;12.60;;;3.28;;
64643;SDS011;51056;50.330;7.914;2023-08-17T04:26:18;8.63;;;2.33;;
64643;SDS011;51056;50.330;7.914;2023-08-17T04:29:21;7.95;;;2.30;;
64643;SDS011;51056;50.330;7.914;2023-08-17T04:32:24;5.97;;;1.98;;
64643;SDS011;51056;50.330;7.914;2023-08-17T04:35:28;4.75;;;2.30;;
64643;SDS011;51056;50.330;7.914;2023-08-17T04:38:31;9.40;;;2.42;;
64643;SDS011;51056;50.330;7.914;2023-08-17T04:41:38;17.23;;;3.10;;
64643;SDS011;51056;50.330;7.914;2023-08-17T04:44:43;8.88;;;2.55;;
64643;SDS011;51056;50.330;7.914;2023-08-17T04:47:47;7.70;;;2.10;;
64643;SDS011;51056;50.330;7.914;2023-08-17T04:50:51;9.25;;;2.30;;
64643;SDS011;51056;50.330;7.914;2023-08-17T04:53:54;8.20;;;2.42;;
64643;SDS011;51056;50.330;7.914;2023-08-17T04:56:57;8.48;;;2.40;;
64643;SDS011;51056;50.330;7.914;2023-08-17T05:00:01;5.97;;;1.95;;
64643;SDS011;51056;50.330;7.914;2023-08-17T05:03:07;8.82;;;2.45;;
64643;SDS011;51056;50.330;7.914;2023-08-17T05:06:14;10.65;;;2.28;;
64643;SDS011;51056;50.330;7.914;2023-08-17T05:09:17;4.45;;;1.90;;
64643;SDS011;51056;50.330;7.914;2023-08-17T05:12:21;7.28;;;1.98;;
64643;SDS011;51056;50.330;7.914;2023-08-17T05:15:25;7.63;;;1.98;;
64643;SDS011;51056;50.330;7.914;2023-08-17T05:18:28;8.10;;;1.90;;
64643;SDS011;51056;50.330;7.914;2023-08-17T05:21:32;6.88;;;2.20;;
64643;SDS011;51056;50.330;7.914;2023-08-17T05:24:39;4.78;;;1.90;;
64643;SDS011;51056;50.330;7.914;2023-08-17T05:27:44;7.50;;;2.10;;
64643;SDS011;51056;50.330;7.914;2023-08-17T05:30:48;8.43;;;1.90;;
64643;SDS011;51056;50.330;7.914;2023-08-17T05:33:52;3.35;;;1.98;;
64643;SDS011;51056;50.330;7.914;2023-08-17T05:36:55;6.75;;;1.90;;
64643;SDS011;51056;50.330;7.914;2023-08-17T05:39:59;5.60;;;2.10;;
64643;SDS011;51056;50.330;7.914;2023-08-17T05:43:03;5.80;;;1.73;;
64643;SDS011;51056;50.330;7.914;2023-08-17T05:46:06;6.22;;;2.05;;
64643;SDS011;51056;50.330;7.914;2023-08-17T05:49:10;3.60;;;1.55;;
64643;SDS011;51056;50.330;7.914;2023-08-17T05:52:14;5.90;;;1.80;;
64643;SDS011;51056;50.330;7.914;2023-08-17T05:55:17;3.17;;;1.30;;
64643;SDS011;51056;50.330;7.914;2023-08-17T05:58:20;6.28;;;1.50;;
64643;SDS011;51056;50.330;7.914;2023-08-17T06:01:25;4.13;;;1.80;;
64643;SDS011;51056;50.330;7.914;2023-08-17T06:04:28;3.20;;;1.73;;
64643;SDS011;51056;50.330;7.914;2023-08-17T06:07:32;4.60;;;2.30;;
64643;SDS011;51056;50.330;7.914;2023-08-17T06:10:35;4.93;;;2.15;;
64643;SDS011;51056;50.330;7.914;2023-08-17T06:13:39;6.28;;;2.03;;
64643;SDS011;51056;50.330;7.914;2023-08-17T06:16:43;4.50;;;2.28;;
64643;SDS011;51056;50.330;7.914;2023-08-17T06:19:46;6.20;;;2.28;;
64643;SDS011;51056;50.330;7.914;2023-08-17T06:22:49;3.60;;;1.98;;
64643;SDS011;51056;50.330;7.914;2023-08-17T06:25:57;4.70;;;2.20;;
64643;SDS011;51056;50.330;7.914;2023-08-17T06:29:04;3.88;;;2.58;;
64643;SDS011;51056;50.330;7.914;2023-08-17T06:32:08;4.05;;;1.98;;
64643;SDS011;51056;50.330;7.914;2023-08-17T06:35:11;3.28;;;1.85;;
64643;SDS011;51056;50.330;7.914;2023-08-17T06:38:14;4.88;;;2.75;;
64643;SDS011;51056;50.330;7.914;2023-08-17T06:41:20;4.63;;;1.70;;
64643;SDS011;51056;50.330;7.914;2023-08-17T06:44:27;5.03;;;2.47;;
64643;SDS011;51056;50.330;7.914;2023-08-17T06:47:31;4.80;;;1.92;;
64643;SDS011;51056;50.330;7.914;2023-08-17T06:50:35;5.15;;;2.58;;
64643;SDS011;51056;50.330;7.914;2023-08-17T06:53:41;7.30;;;2.50;;
64643;SDS011;51056;50.330;7.914;2023-08-17T06:56:45;6.88;;;2.10;;
64643;SDS011;51056;50.330;7.914;2023-08-17T06:59:49;3.05;;;2.13;;
64643;SDS011;51056;50.330;7.914;2023-08-17T07:02:52;4.55;;;1.73;;
64643;SDS011;51056;50.330;7.914;2023-08-17T07:05:55;7.70;;;2.08;;
64643;SDS011;51056;50.330;7.914;2023-08-17T07:08:59;4.75;;;1.83;;
64643;SDS011;51056;50.330;7.914;2023-08-17T07:12:02;3.22;;;1.90;;
64643;SDS011;51056;50.330;7.914;2023-08-17T07:15:06;4.80;;;1.70;;
64643;SDS011;51056;50.330;7.914;2023-08-17T07:18:11;5.43;;;2.33;;
64643;SDS011;51056;50.330;7.914;2023-08-17T07:21:17;4.20;;;2.72;;
64643;SDS011;51056;50.330;7.914;2023-08-17T07:24:21;4.25;;;1.90;;
64643;SDS011;51056;50.330;7.914;2023-08-17T07:27:24;3.97;;;2.10;;
64643;SDS011;51056;50.330;7.914;2023-08-17T07:30:28;3.25;;;2.15;;
64643;SDS011;51056;50.330;7.914;2023-08-17T07:33:31;4.80;;;1.88;;
64643;SDS011;51056;50.330;7.914;2023-08-17T07:36:34;3.33;;;1.83;;
64643;SDS011;51056;50.330;7.914;2023-08-17T07:39:38;4.63;;;1.73;;
64643;SDS011;51056;50.330;7.914;2023-08-17T07:42:45;3.67;;;1.50;;
64643;SDS011;51056;50.330;7.914;2023-08-17T07:45:55;4.13;;;1.60;;
64643;SDS011;51056;50.330;7.914;2023-08-17T07:49:02;4.63;;;1.50;;
64643;SDS011;51056;50.330;7.914;2023-08-17T07:52:05;2.78;;;1.30;;
64643;SDS011;51056;50.330;7.914;2023-08-17T07:55:09;4.65;;;1.20;;
64643;SDS011;51056;50.330;7.914;2023-08-17T07:58:13;3.08;;;1.48;;
64643;SDS011;51056;50.330;7.914;2023-08-17T08:01:16;2.33;;;1.25;;
64643;SDS011;51056;50.330;7.914;2023-08-17T08:04:19;2.08;;;1.45;;
64643;SDS011;51056;50.330;7.914;2023-08-17T08:07:23;3.65;;;1.20;;
64643;SDS011;51056;50.330;7.914;2023-08-17T08:10:27;2.40;;;1.10;;
64643;SDS011;51056;50.330;7.914;2023-08-17T08:13:30;2.65;;;1.20;;
64643;SDS011;51056;50.330;7.914;2023-08-17T08:16:34;3.15;;;1.27;;
64643;SDS011;51056;50.330;7.914;2023-08-17T08:19:37;4.07;;;1.20;;
64643;SDS011;51056;50.330;7.914;2023-08-17T08:22:40;2.38;;;1.30;;
64643;SDS011;51056;50.330;7.914;2023-08-17T08:25:44;3.35;;;1.13;;
64643;SDS011;51056;50.330;7.914;2023-08-17T08:28:47;3.03;;;1.33;;
64643;SDS011;51056;50.330;7.914;2023-08-17T08:31:51;2.28;;;1.35;;
64643;SDS011;51056;50.330;7.914;2023-08-17T08:34:54;4.85;;;1.90;;
64643;SDS011;51056;50.330;7.914;2023-08-17T08:37:58;2.63;;;1.50;;
64643;SDS011;51056;50.330;7.914;2023-08-17T08:41:02;2.95;;;1.35;;
64643;SDS011;51056;50.330;7.914;2023-08-17T08:44:06;6.32;;;1.67;;
64643;SDS011;51056;50.330;7.914;2023-08-17T08:47:09;2.30;;;1.20;;
64643;SDS011;51056;50.330;7.914;2023-08-17T08:50:18;3.97;;;1.50;;
64643;SDS011;51056;50.330;7.914;2023-08-17T08:53:27;3.08;;;1.35;;
64643;SDS011;51056;50.330;7.914;2023-08-17T08:56:36;2.77;;;1.53;;
64643;SDS011;51056;50.330;7.914;2023-08-17T08:59:42;6.22;;;1.40;;
64643;SDS011;51056;50.330;7.914;2023-08-17T09:02:49;2.78;;;1.60;;
64643;SDS011;51056;50.330;7.914;2023-08-17T09:05:54;4.15;;;1.35;;
64643;SDS011;51056;50.330;7.914;2023-08-17T09:09:00;7.38;;;1.60;;
64643;SDS011;51056;50.330;7.914;2023-08-17T09:12:07;3.58;;;1.10;;
64643;SDS011;51056;50.330;7.914;2023-08-17T09:15:12;4.22;;;1.30;;
64643;SDS011;51056;50.330;7.914;2023-08-17T09:18:15;3.33;;;1.25;;
64643;SDS011;51056;50.330;7.914;2023-08-17T09:21:19;2.53;;;1.38;;
64643;SDS011;51056;50.330;7.914;2023-08-17T09:24:28;2.88;;;1.05;;
64643;SDS011;51056;50.330;7.914;2023-08-17T09:27:37;2.30;;;1.23;;
64643;SDS011;51056;50.330;7.914;2023-08-17T09:33:57;3.42;;;1.30;;
64643;SDS011;51056;50.330;7.914;2023-08-17T09:37:04;3.25;;;1.38;;
64643;SDS011;51056;50.330;7.914;2023-08-17T09:40:07;3.97;;;1.50;;
64643;SDS011;51056;50.330;7.914;2023-08-17T09:43:11;2.17;;;1.17;;
64643;SDS011;51056;50.330;7.914;2023-08-17T09:46:17;2.83;;;1.02;;
64643;SDS011;51056;50.330;7.914;2023-08-17T09:49:22;2.90;;;1.52;;
64643;SDS011;51056;50.330;7.914;2023-08-17T09:52:27;2.67;;;1.55;;
64643;SDS011;51056;50.330;7.914;2023-08-17T09:55:30;2.78;;;1.40;;
64643;SDS011;51056;50.330;7.914;2023-08-17T09:58:35;3.15;;;1.50;;
64643;SDS011;51056;50.330;7.914;2023-08-17T10:01:39;2.85;;;1.60;;
64643;SDS011;51056;50.330;7.914;2023-08-17T10:04:43;2.80;;;1.40;;
64643;SDS011;51056;50.330;7.914;2023-08-17T10:08:02;3.10;;;1.42;;
64643;SDS011;51056;50.330;7.914;2023-08-17T10:11:12;4.57;;;1.30;;
64643;SDS011;51056;50.330;7.914;2023-08-17T10:14:59;2.83;;;1.40;;
64643;SDS011;51056;50.330;7.914;2023-08-17T10:18:45;2.33;;;1.42;;
64643;SDS011;51056;50.330;7.914;2023-08-17T10:22:11;4.85;;;1.60;;
64643;SDS011;51056;50.330;7.914;2023-08-17T10:25:19;3.17;;;1.70;;
64643;SDS011;51056;50.330;7.914;2023-08-17T10:28:26;4.25;;;1.42;;
64643;SDS011;51056;50.330;7.914;2023-08-17T10:31:34;5.13;;;1.33;;
64643;SDS011;51056;50.330;7.914;2023-08-17T10:34:40;2.65;;;1.38;;
64643;SDS011;51056;50.330;7.914;2023-08-17T10:37:44;5.80;;;1.60;;
64643;SDS011;51056;50.330;7.914;2023-08-17T10:41:06;4.20;;;1.33;;
64643;SDS011;51056;50.330;7.914;2023-08-17T10:44:18;4.45;;;1.20;;
64643;SDS011;51056;50.330;7.914;2023-08-17T10:47:45;3.95;;;1.70;;
64643;SDS011;51056;50.330;7.914;2023-08-17T10:50:58;4.53;;;1.45;;
64643;SDS011;51056;50.330;7.914;2023-08-17T10:54:03;5.20;;;2.00;;
64643;SDS011;51056;50.330;7.914;2023-08-17T11:00:36;3.60;;;1.55;;
64643;SDS011;51056;50.330;7.914;2023-08-17T11:03:41;4.13;;;1.20;;
64643;SDS011;51056;50.330;7.914;2023-08-17T11:07:00;4.63;;;1.20;;
64643;SDS011;51056;50.330;7.914;2023-08-17T11:10:38;6.97;;;1.80;;
64643;SDS011;51056;50.330;7.914;2023-08-17T11:13:37;3.60;;;1.55;;
64643;SDS011;51056;50.330;7.914;2023-08-17T11:16:41;3.13;;;1.83;;
64643;SDS011;51056;50.330;7.914;2023-08-17T11:19:44;2.88;;;1.38;;
64643;SDS011;51056;50.330;7.914;2023-08-17T11:22:48;2.72;;;1.30;;
64643;SDS011;51056;50.330;7.914;2023-08-17T11:25:54;3.13;;;1.42;;
64643;SDS011;51056;50.330;7.914;2023-08-17T11:28:57;3.72;;;1.48;;
64643;SDS011;51056;50.330;7.914;2023-08-17T11:32:01;3.42;;;1.58;;
64643;SDS011;51056;50.330;7.914;2023-08-17T11:35:04;3.90;;;1.60;;
64643;SDS011;51056;50.330;7.914;2023-08-17T11:38:11;4.43;;;1.40;;
64643;SDS011;51056;50.330;7.914;2023-08-17T11:41:18;2.35;;;1.50;;
64643;SDS011;51056;50.330;7.914;2023-08-17T11:44:22;2.92;;;1.65;;
64643;SDS011;51056;50.330;7.914;2023-08-17T11:47:25;3.30;;;1.33;;
64643;SDS011;51056;50.330;7.914;2023-08-17T11:50:29;3.20;;;1.08;;
64643;SDS011;51056;50.330;7.914;2023-08-17T11:53:33;2.53;;;1.25;;
64643;SDS011;51056;50.330;7.914;2023-08-17T11:56:39;2.45;;;1.33;;
64643;SDS011;51056;50.330;7.914;2023-08-17T11:59:44;3.85;;;1.17;;
64643;SDS011;51056;50.330;7.914;2023-08-17T12:02:49;3.30;;;1.20;;
64643;SDS011;51056;50.330;7.914;2023-08-17T12:05:53;2.97;;;1.50;;
64643;SDS011;51056;50.330;7.914;2023-08-17T12:08:59;2.63;;;1.10;;
64643;SDS011;51056;50.330;7.914;2023-08-17T12:12:07;2.78;;;1.30;;
64643;SDS011;51056;50.330;7.914;2023-08-17T12:15:11;2.53;;;1.20;;
64643;SDS011;51056;50.330;7.914;2023-08-17T12:18:19;2.80;;;0.98;;
64643;SDS011;51056;50.330;7.914;2023-08-17T12:21:32;2.47;;;1.40;;
64643;SDS011;51056;50.330;7.914;2023-08-17T12:24:37;5.45;;;1.23;;
64643;SDS011;51056;50.330;7.914;2023-08-17T12:27:43;4.05;;;1.05;;
64643;SDS011;51056;50.330;7.914;2023-08-17T12:30:59;5.78;;;1.67;;
64643;SDS011;51056;50.330;7.914;2023-08-17T12:34:04;3.22;;;1.35;;
64643;SDS011;51056;50.330;7.914;2023-08-17T12:37:11;2.25;;;1.00;;
64643;SDS011;51056;50.330;7.914;2023-08-17T12:40:15;3.67;;;1.23;;
64643;SDS011;51056;50.330;7.914;2023-08-17T12:43:19;6.93;;;1.38;;
64643;SDS011;51056;50.330;7.914;2023-08-17T12:46:23;1.80;;;1.00;;
64643;SDS011;51056;50.330;7.914;2023-08-17T12:49:26;3.88;;;1.42;;
64643;SDS011;51056;50.330;7.914;2023-08-17T12:52:30;6.00;;;1.45;;
64643;SDS011;51056;50.330;7.914;2023-08-17T12:55:33;4.20;;;1.10;;
64643;SDS011;51056;50.330;7.914;2023-08-17T12:58:36;4.53;;;1.23;;
64643;SDS011;51056;50.330;7.914;2023-08-17T13:01:39;3.47;;;1.10;;
64643;SDS011;51056;50.330;7.914;2023-08-17T13:04:43;3.58;;;0.90;;
64643;SDS011;51056;50.330;7.914;2023-08-17T13:07:47;2.50;;;1.20;;
64643;SDS011;51056;50.330;7.914;2023-08-17T13:10:50;3.97;;;1.15;;
64643;SDS011;51056;50.330;7.914;2023-08-17T13:13:53;3.10;;;1.27;;
64643;SDS011;51056;50.330;7.914;2023-08-17T13:16:57;2.75;;;1.05;;
64643;SDS011;51056;50.330;7.914;2023-08-17T13:20:00;2.40;;;1.17;;
64643;SDS011;51056;50.330;7.914;2023-08-17T13:23:03;2.42;;;1.08;;
64643;SDS011;51056;50.330;7.914;2023-08-17T13:26:08;2.00;;;1.00;;
64643;SDS011;51056;50.330;7.914;2023-08-17T13:33:08;2.58;;;1.17;;
64643;SDS011;51056;50.330;7.914;2023-08-17T13:39:43;1.98;;;1.00;;
64643;SDS011;51056;50.330;7.914;2023-08-17T13:42:47;4.28;;;1.30;;
64643;SDS011;51056;50.330;7.914;2023-08-17T13:45:51;4.88;;;1.20;;
64643;SDS011;51056;50.330;7.914;2023-08-17T13:48:55;2.83;;;1.25;;
64643;SDS011;51056;50.330;7.914;2023-08-17T13:51:58;3.78;;;1.10;;
64643;SDS011;51056;50.330;7.914;2023-08-17T13:55:03;4.95;;;1.30;;
64643;SDS011;51056;50.330;7.914;2023-08-17T13:58:06;1.95;;;0.95;;
64643;SDS011;51056;50.330;7.914;2023-08-17T14:01:12;3.08;;;1.33;;
64643;SDS011;51056;50.330;7.914;2023-08-17T14:04:17;5.25;;;1.40;;
64643;SDS011;51056;50.330;7.914;2023-08-17T14:07:21;3.13;;;1.30;;
64643;SDS011;51056;50.330;7.914;2023-08-17T14:10:25;3.10;;;1.33;;
64643;SDS011;51056;50.330;7.914;2023-08-17T14:17:01;3.13;;;1.30;;
64643;SDS011;51056;50.330;7.914;2023-08-17T14:20:05;5.07;;;1.30;;
64643;SDS011;51056;50.330;7.914;2023-08-17T14:23:09;3.45;;;1.20;;
64643;SDS011;51056;50.330;7.914;2023-08-17T14:26:13;2.67;;;1.30;;
64643;SDS011;51056;50.330;7.914;2023-08-17T14:29:16;4.20;;;1.00;;
64643;SDS011;51056;50.330;7.914;2023-08-17T14:32:20;2.75;;;1.20;;
64643;SDS011;51056;50.330;7.914;2023-08-17T14:35:23;2.58;;;1.20;;
64643;SDS011;51056;50.330;7.914;2023-08-17T14:38:30;3.20;;;1.30;;
64643;SDS011;51056;50.330;7.914;2023-08-17T14:41:34;4.63;;;1.58;;
64643;SDS011;51056;50.330;7.914;2023-08-17T14:44:43;2.17;;;1.20;;
64643;SDS011;51056;50.330;7.914;2023-08-17T14:47:47;5.00;;;2.28;;
64643;SDS011;51056;50.330;7.914;2023-08-17T14:50:50;3.17;;;1.50;;
64643;SDS011;51056;50.330;7.914;2023-08-17T14:53:54;3.70;;;1.08;;
64643;SDS011;51056;50.330;7.914;2023-08-17T14:56:58;3.17;;;1.42;;
64643;SDS011;51056;50.330;7.914;2023-08-17T15:00:01;5.80;;;1.73;;
64643;SDS011;51056;50.330;7.914;2023-08-17T15:03:05;3.53;;;0.98;;
64643;SDS011;51056;50.330;7.914;2023-08-17T15:06:10;4.25;;;1.20;;
64643;SDS011;51056;50.330;7.914;2023-08-17T15:09:13;2.42;;;1.00;;
64643;SDS011;51056;50.330;7.914;2023-08-17T15:12:17;3.65;;;1.30;;
64643;SDS011;51056;50.330;7.914;2023-08-17T15:15:20;5.43;;;1.20;;
64643;SDS011;51056;50.330;7.914;2023-08-17T15:18:27;1.80;;;0.93;;
64643;SDS011;51056;50.330;7.914;2023-08-17T15:21:30;4.32;;;1.05;;
64643;SDS011;51056;50.330;7.914;2023-08-17T15:24:39;2.55;;;0.90;;
64643;SDS011;51056;50.330;7.914;2023-08-17T15:27:42;3.08;;;1.00;;
64643;SDS011;51056;50.330;7.914;2023-08-17T15:30:59;2.03;;;1.10;;
64643;SDS011;51056;50.330;7.914;2023-08-17T15:34:26;3.67;;;0.82;;
64643;SDS011;51056;50.330;7.914;2023-08-17T15:37:30;3.78;;;1.00;;
64643;SDS011;51056;50.330;7.914;2023-08-17T15:40:33;3.22;;;1.00;;
64643;SDS011;51056;50.330;7.914;2023-08-17T15:43:36;5.18;;;0.90;;
64643;SDS011;51056;50.330;7.914;2023-08-17T15:46:39;4.13;;;1.20;;
64643;SDS011;51056;50.330;7.914;2023-08-17T15:49:43;1.60;;;0.80;;
64643;SDS011;51056;50.330;7.914;2023-08-17T15:52:48;7.78;;;1.10;;
64643;SDS011;51056;50.330;7.914;2023-08-17T15:56:32;6.57;;;1.35;;
64643;SDS011;51056;50.330;7.914;2023-08-17T15:59:35;2.97;;;1.00;;
64643;SDS011;51056;50.330;7.914;2023-08-17T16:02:44;3.97;;;1.02;;
64643;SDS011;51056;50.330;7.914;2023-08-17T16:13:15;2.95;;;1.05;;
64643;SDS011;51056;50.330;7.914;2023-08-17T16:16:27;3.50;;;1.08;;
64643;SDS011;51056;50.330;7.914;2023-08-17T16:19:35;4.97;;;1.52;;
64643;SDS011;51056;50.330;7.914;2023-08-17T16:22:39;1.60;;;0.80;;
64643;SDS011;51056;50.330;7.914;2023-08-17T16:25:43;2.65;;;0.75;;
64643;SDS011;51056;50.330;7.914;2023-08-17T16:28:47;2.55;;;1.00;;
64643;SDS011;51056;50.330;7.914;2023-08-17T16:32:00;3.40;;;1.00;;
64643;SDS011;51056;50.330;7.914;2023-08-17T16:35:07;6.57;;;1.35;;
64643;SDS011;51056;50.330;7.914;2023-08-17T16:38:13;5.38;;;1.20;;
64643;SDS011;51056;50.330;7.914;2023-08-17T16:41:20;2.83;;;1.10;;
64643;SDS011;51056;50.330;7.914;2023-08-17T16:44:24;4.40;;;1.10;;
64643;SDS011;51056;50.330;7.914;2023-08-17T16:47:36;2.58;;;1.20;;
64643;SDS011;51056;50.330;7.914;2023-08-17T16:50:41;9.27;;;1.42;;
64643;SDS011;51056;50.330;7.914;2023-08-17T16:53:45;9.52;;;1.38;;
64643;SDS011;51056;50.330;7.914;2023-08-17T17:02:09;8.45;;;1.55;;
64643;SDS011;51056;50.330;7.914;2023-08-17T17:05:13;9.10;;;1.80;;
64643;SDS011;51056;50.330;7.914;2023-08-17T17:08:19;6.53;;;1.60;;
64643;SDS011;51056;50.330;7.914;2023-08-17T17:11:31;5.00;;;1.42;;
64643;SDS011;51056;50.330;7.914;2023-08-17T17:14:34;2.70;;;1.20;;
64643;SDS011;51056;50.330;7.914;2023-08-17T17:17:37;6.10;;;2.38;;
64643;SDS011;51056;50.330;7.914;2023-08-17T17:20:41;7.68;;;1.40;;
64643;SDS011;51056;50.330;7.914;2023-08-17T17:23:45;11.70;;;2.15;;
64643;SDS011;51056;50.330;7.914;2023-08-17T17:26:50;8.65;;;2.05;;
64643;SDS011;51056;50.330;7.914;2023-08-17T17:29:53;6.05;;;1.63;;
64643;SDS011;51056;50.330;7.914;2023-08-17T17:32:57;6.13;;;2.40;;
64643;SDS011;51056;50.330;7.914;2023-08-17T17:36:01;8.93;;;1.60;;
64643;SDS011;51056;50.330;7.914;2023-08-17T17:39:07;7.65;;;1.70;;
64643;SDS011;51056;50.330;7.914;2023-08-17T17:42:11;13.13;;;2.15;;
64643;SDS011;51056;50.330;7.914;2023-08-17T17:45:14;5.60;;;2.20;;
64643;SDS011;51056;50.330;7.914;2023-08-17T17:48:18;9.90;;;3.00;;
64643;SDS011;51056;50.330;7.914;2023-08-17T17:51:25;9.63;;;2.10;;
64643;SDS011;51056;50.330;7.914;2023-08-17T17:54:28;5.63;;;1.90;;
64643;SDS011;51056;50.330;7.914;2023-08-17T17:57:33;9.68;;;2.30;;
64643;SDS011;51056;50.330;7.914;2023-08-17T18:00:37;11.05;;;1.67;;
64643;SDS011;51056;50.330;7.914;2023-08-17T18:03:43;16.65;;;2.75;;
64643;SDS011;51056;50.330;7.914;2023-08-17T18:06:49;5.97;;;1.60;;
64643;SDS011;51056;50.330;7.914;2023-08-17T18:09:53;16.67;;;1.85;;
64643;SDS011;51056;50.330;7.914;2023-08-17T18:12:58;7.53;;;1.80;;
64643;SDS011;51056;50.330;7.914;2023-08-17T18:16:02;10.43;;;2.55;;
64643;SDS011;51056;50.330;7.914;2023-08-17T18:19:06;14.20;;;2.40;;
64643;SDS011;51056;50.330;7.914;2023-08-17T18:22:10;16.00;;;2.17;;
64643;SDS011;51056;50.330;7.914;2023-08-17T18:25:13;16.55;;;2.47;;
64643;SDS011;51056;50.330;7.914;2023-08-17T18:28:20;11.75;;;1.90;;
64643;SDS011;51056;50.330;7.914;2023-08-17T18:31:27;9.13;;;2.30;;
64643;SDS011;51056;50.330;7.914;2023-08-17T18:34:33;9.50;;;1.50;;
64643;SDS011;51056;50.330;7.914;2023-08-17T18:37:38;13.65;;;2.22;;
64643;SDS011;51056;50.330;7.914;2023-08-17T18:40:43;14.98;;;1.63;;
64643;SDS011;51056;50.330;7.914;2023-08-17T18:43:49;9.88;;;2.05;;
64643;SDS011;51056;50.330;7.914;2023-08-17T18:46:54;8.20;;;1.60;;
64643;SDS011;51056;50.330;7.914;2023-08-17T18:50:02;9.68;;;1.77;;
64643;SDS011;51056;50.330;7.914;2023-08-17T18:53:07;17.33;;;2.63;;
64643;SDS011;51056;50.330;7.914;2023-08-17T18:56:12;13.05;;;2.03;;
64643;SDS011;51056;50.330;7.914;2023-08-17T18:59:16;16.67;;;2.15;;
64643;SDS011;51056;50.330;7.914;2023-08-17T19:02:19;9.55;;;2.08;;
64643;SDS011;51056;50.330;7.914;2023-08-17T19:05:24;12.05;;;1.80;;